Time;durP1;ratioP1;P1;durP2;ratioP2;P2;SDS_P1;SDS_P2;PMS_P1;PMS_P2;Temp;Humidity;BMP_temperature;BMP_pressure;BME280_temperature;BME280_humidity;BME280_pressure;Samples;Min_cycle;Max_cycle;Signal;HPM_P1;HPM_P2
2021/04/07 00:01:43;;;;;;;14.50;11.60;;;5.30;95.40;;;;;;5074176;28;20309;-79
2021/04/07 00:04:09;;;;;;;14.83;11.80;;;5.40;95.20;;;;;;5075462;28;20420;-79
2021/04/07 00:06:36;;;;;;;17.20;13.20;;;5.40;95.20;;;;;;5074007;28;20201;-78
2021/04/07 00:09:05;;;;;;;14.05;11.77;;;5.40;95.10;;;;;;5074790;28;20449;-79
2021/04/07 00:11:31;;;;;;;13.68;11.50;;;5.40;95.00;;;;;;5074333;28;20180;-79
2021/04/07 00:13:59;;;;;;;16.03;12.90;;;5.40;95.00;;;;;;5075121;28;20181;-79
2021/04/07 00:16:25;;;;;;;17.65;12.20;;;5.40;95.10;;;;;;5073007;28;20418;-78
2021/04/07 00:18:51;;;;;;;16.83;12.43;;;5.40;95.10;;;;;;5075116;28;20208;-79
2021/04/07 00:21:17;;;;;;;13.60;11.67;;;5.50;95.00;;;;;;5074757;28;20169;-79
2021/04/07 00:23:43;;;;;;;15.90;11.80;;;5.40;95.00;;;;;;5074170;28;20404;-79
2021/04/07 00:26:09;;;;;;;17.00;10.70;;;5.40;95.00;;;;;;5074955;28;20203;-80
2021/04/07 00:28:34;;;;;;;13.37;10.97;;;5.40;94.80;;;;;;5074138;28;20633;-79
2021/04/07 00:31:00;;;;;;;18.23;11.07;;;5.30;94.90;;;;;;5073932;28;20184;-79
2021/04/07 00:33:26;;;;;;;17.63;11.20;;;5.20;95.50;;;;;;5074060;28;20412;-78
2021/04/07 00:35:52;;;;;;;16.00;11.20;;;5.10;95.10;;;;;;5056557;28;20461;-80
2021/04/07 00:38:18;;;;;;;14.48;11.63;;;5.20;94.90;;;;;;5073319;28;20251;-79
2021/04/07 00:40:44;;;;;;;16.73;11.47;;;5.20;95.00;;;;;;5073894;28;20173;-79
2021/04/07 00:43:09;;;;;;;15.03;11.77;;;5.10;95.00;;;;;;5074644;28;20412;-80
2021/04/07 00:45:35;;;;;;;18.90;13.40;;;5.20;95.20;;;;;;5073525;28;20459;-80
2021/04/07 00:48:02;;;;;;;19.50;12.10;;;5.20;95.20;;;;;;5074593;28;20185;-80
2021/04/07 00:50:30;;;;;;;14.50;10.57;;;5.20;96.00;;;;;;5073643;28;20391;-79
2021/04/07 00:52:56;;;;;;;16.00;10.70;;;5.20;96.40;;;;;;5074428;28;20174;-79
2021/04/07 00:55:28;;;;;;;11.80;9.98;;;5.20;96.40;;;;;;5074420;28;20577;-80
2021/04/07 00:57:54;;;;;;;13.23;9.88;;;5.20;96.20;;;;;;5074077;28;20199;-80
2021/04/07 01:00:21;;;;;;;16.65;11.07;;;5.20;96.10;;;;;;5074313;28;20230;-80
2021/04/07 01:02:56;;;;;;;16.10;11.75;;;5.10;95.80;;;;;;5072235;28;20169;-79
2021/04/07 01:05:23;;;;;;;14.10;11.60;;;5.00;95.70;;;;;;5074368;28;20182;-78
2021/04/07 01:07:49;;;;;;;16.88;12.63;;;5.00;96.00;;;;;;5073318;28;20216;-78
2021/04/07 01:10:16;;;;;;;21.10;14.33;;;5.10;96.00;;;;;;5074082;28;20181;-78
2021/04/07 01:12:43;;;;;;;16.83;13.07;;;5.10;96.10;;;;;;5073286;28;20386;-78
2021/04/07 01:15:11;;;;;;;17.10;14.00;;;5.20;96.20;;;;;;5072588;28;20529;-77
2021/04/07 01:17:37;;;;;;;19.33;14.43;;;5.20;96.30;;;;;;5072624;28;20735;-76
2021/04/07 01:20:08;;;;;;;18.40;14.73;;;5.20;96.50;;;;;;5074004;28;20176;-77
2021/04/07 01:22:36;;;;;;;20.35;14.38;;;5.20;96.60;;;;;;5072948;28;20172;-77
2021/04/07 01:25:04;;;;;;;20.00;13.60;;;5.20;96.60;;;;;;5072735;28;20183;-77
2021/04/07 01:27:31;;;;;;;17.13;13.48;;;5.20;96.10;;;;;;5072926;28;20203;-78
2021/04/07 01:29:57;;;;;;;17.10;13.05;;;5.20;95.80;;;;;;5073820;28;20203;-79
2021/04/07 01:32:22;;;;;;;17.17;13.40;;;5.20;95.60;;;;;;5073632;28;20515;-79
2021/04/07 01:34:48;;;;;;;15.27;12.10;;;5.20;95.60;;;;;;5072862;28;20477;-79
2021/04/07 01:37:15;;;;;;;18.17;13.77;;;5.20;95.50;;;;;;5072805;28;20221;-79
2021/04/07 01:39:42;;;;;;;16.15;12.63;;;5.20;95.40;;;;;;5052996;28;20209;-79
2021/04/07 01:42:08;;;;;;;16.73;12.90;;;5.20;95.30;;;;;;5053508;28;20203;-79
2021/04/07 01:44:37;;;;;;;16.15;13.18;;;5.10;95.20;;;;;;5052451;28;20185;-79
2021/04/07 01:47:04;;;;;;;14.63;12.93;;;5.10;95.70;;;;;;5053366;28;20178;-79
2021/04/07 01:49:31;;;;;;;14.32;12.82;;;5.10;95.90;;;;;;5052392;28;20178;-78
2021/04/07 01:51:57;;;;;;;17.15;12.80;;;5.10;95.90;;;;;;5053302;28;20174;-79
2021/04/07 01:54:22;;;;;;;19.70;13.67;;;5.10;96.10;;;;;;5053104;28;20189;-79
2021/04/07 01:56:51;;;;;;;17.33;14.20;;;5.00;96.50;;;;;;5058846;28;20727;-79
2021/04/07 01:59:21;;;;;;;20.73;14.65;;;5.00;96.30;;;;;;5073110;28;20212;-79
2021/04/07 02:01:47;;;;;;;19.35;16.63;;;4.90;96.60;;;;;;5072270;28;20531;-79
2021/04/07 02:04:16;;;;;;;24.27;16.35;;;5.00;97.10;;;;;;5073076;28;20185;-79
2021/04/07 02:06:45;;;;;;;20.42;15.90;;;4.90;96.60;;;;;;5072184;28;20187;-79
2021/04/07 02:09:12;;;;;;;22.55;17.65;;;4.90;96.60;;;;;;5071750;28;20174;-78
2021/04/07 02:11:42;;;;;;;21.33;15.32;;;4.80;96.50;;;;;;5071830;28;20180;-79
2021/04/07 02:14:12;;;;;;;22.10;16.40;;;4.90;96.60;;;;;;5072486;28;20522;-79
2021/04/07 02:16:38;;;;;;;21.25;14.70;;;4.90;96.40;;;;;;5070435;28;20596;-79
2021/04/07 02:19:08;;;;;;;18.48;15.10;;;4.80;96.10;;;;;;5072666;28;20299;-80
2021/04/07 02:21:37;;;;;;;21.35;16.20;;;4.80;96.20;;;;;;5071939;28;20183;-79
2021/04/07 02:24:06;;;;;;;21.02;16.00;;;4.90;96.10;;;;;;5071562;28;20637;-80
2021/04/07 02:26:32;;;;;;;19.13;15.02;;;5.00;95.90;;;;;;5071751;28;20180;-79
2021/04/07 02:28:59;;;;;;;21.77;15.25;;;5.00;95.80;;;;;;5072597;28;20181;-79
2021/04/07 02:31:25;;;;;;;20.38;14.23;;;4.90;95.80;;;;;;5072597;28;20173;-79
2021/04/07 02:33:50;;;;;;;20.80;15.35;;;4.90;95.90;;;;;;5071733;28;20410;-79
2021/04/07 02:36:16;;;;;;;20.20;14.20;;;4.90;95.80;;;;;;5072379;28;20248;-79
2021/04/07 02:38:42;;;;;;;17.73;13.47;;;4.90;95.90;;;;;;5071742;28;20265;-79
2021/04/07 02:41:08;;;;;;;20.07;13.27;;;4.80;95.60;;;;;;5072511;28;20633;-79
2021/04/07 02:43:33;;;;;;;21.63;13.17;;;4.80;95.90;;;;;;5072062;28;20176;-78
2021/04/07 02:45:59;;;;;;;15.17;13.17;;;4.80;96.00;;;;;;5072501;28;20498;-79
2021/04/07 02:48:26;;;;;;;21.37;12.57;;;4.80;96.10;;;;;;5071928;28;20181;-79
2021/04/07 02:50:52;;;;;;;16.45;12.13;;;4.80;96.50;;;;;;5071591;28;20279;-79
2021/04/07 02:53:18;;;;;;;15.57;12.30;;;4.80;96.40;;;;;;5072265;28;20223;-79
2021/04/07 02:55:44;;;;;;;13.57;11.30;;;4.80;96.40;;;;;;5071476;28;20176;-78
2021/04/07 02:58:10;;;;;;;13.50;11.90;;;4.80;96.20;;;;;;5072263;28;20209;-79
2021/04/07 03:00:36;;;;;;;15.20;11.47;;;4.70;96.20;;;;;;5071504;28;20199;-78
2021/04/07 03:03:01;;;;;;;13.87;11.40;;;4.80;96.10;;;;;;5072206;28;20230;-79
2021/04/07 03:05:27;;;;;;;17.17;12.30;;;4.80;96.10;;;;;;5070897;28;20199;-75
2021/04/07 03:07:53;;;;;;;15.63;11.70;;;4.90;96.20;;;;;;5071123;28;20173;-74
2021/04/07 03:10:18;;;;;;;13.80;12.33;;;4.90;96.00;;;;;;5072213;28;20195;-76
2021/04/07 03:12:44;;;;;;;14.03;11.53;;;4.90;95.80;;;;;;5071405;28;20183;-76
2021/04/07 03:15:10;;;;;;;15.50;12.23;;;4.90;96.10;;;;;;5071877;28;20173;-76
2021/04/07 03:17:37;;;;;;;14.30;12.80;;;4.90;95.90;;;;;;5071446;28;20217;-77
2021/04/07 03:20:07;;;;;;;19.85;13.73;;;4.90;96.00;;;;;;5071812;28;20192;-76
2021/04/07 03:22:33;;;;;;;17.35;13.07;;;4.80;96.10;;;;;;5070561;28;20222;-76
2021/04/07 03:24:59;;;;;;;21.38;13.60;;;4.80;96.00;;;;;;5070561;28;20176;-76
2021/04/07 03:27:25;;;;;;;17.33;13.97;;;4.90;96.00;;;;;;5075202;28;20242;-76
2021/04/07 03:29:52;;;;;;;19.88;13.88;;;5.00;96.00;;;;;;5075792;28;20226;-76
2021/04/07 03:32:18;;;;;;;16.27;12.93;;;5.00;95.90;;;;;;5076375;28;20239;-76
2021/04/07 03:34:44;;;;;;;20.27;15.20;;;5.10;95.70;;;;;;5075717;28;20195;-76
2021/04/07 03:37:09;;;;;;;16.47;14.67;;;5.10;95.30;;;;;;5076443;28;20217;-76
2021/04/07 03:39:35;;;;;;;16.23;14.50;;;5.10;95.30;;;;;;5075741;28;20230;-77
2021/04/07 03:42:01;;;;;;;18.67;14.63;;;5.00;95.20;;;;;;5076132;28;20186;-76
2021/04/07 03:44:27;;;;;;;17.10;14.00;;;5.00;95.40;;;;;;5075993;28;20701;-76
2021/04/07 03:46:53;;;;;;;20.87;16.00;;;5.10;95.60;;;;;;5075057;28;20959;-76
2021/04/07 03:49:19;;;;;;;16.55;13.88;;;5.10;95.30;;;;;;5075775;28;20541;-77
2021/04/07 03:51:45;;;;;;;15.83;14.23;;;5.10;95.30;;;;;;5074802;28;20177;-77
2021/04/07 03:54:11;;;;;;;18.27;14.90;;;5.10;95.30;;;;;;5075523;28;20422;-77
2021/04/07 03:56:37;;;;;;;18.25;15.30;;;5.10;95.40;;;;;;5075030;28;20411;-77
2021/04/07 03:59:03;;;;;;;17.30;13.80;;;5.20;95.30;;;;;;5075847;28;20671;-77
2021/04/07 04:01:28;;;;;;;17.10;14.43;;;5.20;95.30;;;;;;5075806;28;20550;-76
2021/04/07 04:03:54;;;;;;;17.53;14.50;;;5.20;95.00;;;;;;5074874;28;20183;-77
2021/04/07 04:06:20;;;;;;;15.23;13.03;;;5.30;95.00;;;;;;5075406;28;20219;-77
2021/04/07 04:08:45;;;;;;;21.13;15.73;;;5.30;94.90;;;;;;5074150;28;20660;-77
2021/04/07 04:11:11;;;;;;;21.50;13.93;;;5.20;95.10;;;;;;5075268;28;20177;-77
2021/04/07 04:13:37;;;;;;;19.47;13.90;;;5.20;95.10;;;;;;5074777;28;20177;-77
2021/04/07 04:16:03;;;;;;;20.93;17.00;;;5.20;95.30;;;;;;5075110;28;20169;-77
2021/04/07 04:18:28;;;;;;;17.80;15.00;;;5.10;95.60;;;;;;5074947;28;20219;-77
2021/04/07 04:20:54;;;;;;;18.00;15.13;;;5.20;95.60;;;;;;5074328;28;20513;-76
2021/04/07 04:23:20;;;;;;;18.67;14.90;;;5.10;95.40;;;;;;5075023;28;20172;-76
2021/04/07 04:25:45;;;;;;;18.13;14.50;;;5.10;95.50;;;;;;5074197;28;20582;-76
2021/04/07 04:28:11;;;;;;;18.50;14.70;;;5.10;95.60;;;;;;5074712;28;20191;-76
2021/04/07 04:30:37;;;;;;;19.43;15.63;;;5.20;95.70;;;;;;5074511;28;20631;-76
2021/04/07 04:33:03;;;;;;;18.20;14.13;;;5.10;95.70;;;;;;5074368;28;20173;-76
2021/04/07 04:35:28;;;;;;;15.87;14.10;;;5.10;95.70;;;;;;5074539;28;20184;-76
2021/04/07 04:37:54;;;;;;;18.00;14.83;;;5.20;95.60;;;;;;5073633;28;20439;-77
2021/04/07 04:40:20;;;;;;;19.53;14.77;;;5.20;95.60;;;;;;5074735;28;20265;-77
2021/04/07 04:42:47;;;;;;;18.07;15.40;;;5.20;95.80;;;;;;5073395;28;20208;-77
2021/04/07 04:45:13;;;;;;;15.25;13.30;;;5.10;96.00;;;;;;5074568;28;20375;-77
2021/04/07 04:47:39;;;;;;;18.90;14.90;;;5.20;96.00;;;;;;5073538;28;20179;-77
2021/04/07 04:50:07;;;;;;;16.95;13.55;;;5.10;96.40;;;;;;5074298;28;20184;-77
2021/04/07 04:52:33;;;;;;;15.57;13.13;;;5.10;96.80;;;;;;5074179;28;20169;-77
2021/04/07 04:54:59;;;;;;;18.90;13.80;;;5.10;96.90;;;;;;5073592;28;20803;-76
2021/04/07 04:57:25;;;;;;;13.30;11.90;;;5.20;96.90;;;;;;5073098;28;20423;-76
2021/04/07 04:59:51;;;;;;;14.65;11.60;;;5.20;96.80;;;;;;5073286;28;20181;-77
2021/04/07 05:02:16;;;;;;;14.77;12.20;;;5.10;96.80;;;;;;5072903;28;20203;-76
2021/04/07 05:04:42;;;;;;;15.73;12.30;;;5.10;96.70;;;;;;5072247;28;20252;-77
2021/04/07 05:07:08;;;;;;;15.90;11.73;;;5.10;96.70;;;;;;5073931;28;20267;-77
2021/04/07 05:09:34;;;;;;;14.53;11.50;;;5.10;96.70;;;;;;5073762;28;20484;-77
2021/04/07 05:12:00;;;;;;;16.73;11.63;;;5.10;96.80;;;;;;5072982;28;20884;-77
2021/04/07 05:14:26;;;;;;;14.80;11.13;;;5.10;96.90;;;;;;5073818;28;20397;-76
2021/04/07 05:16:52;;;;;;;15.07;11.77;;;5.20;96.90;;;;;;5072715;28;20415;-77
2021/04/07 05:19:19;;;;;;;14.00;11.13;;;5.10;96.90;;;;;;5072672;28;20469;-76
2021/04/07 05:21:45;;;;;;;15.73;12.05;;;5.20;97.00;;;;;;5073120;28;20539;-77
2021/04/07 05:24:11;;;;;;;12.65;11.27;;;5.20;97.00;;;;;;5073687;28;20531;-77
2021/04/07 05:26:37;;;;;;;17.67;12.50;;;5.20;97.10;;;;;;5073697;28;20177;-77
2021/04/07 05:29:04;;;;;;;14.18;11.20;;;5.30;97.10;;;;;;5072920;28;20188;-76
2021/04/07 05:31:30;;;;;;;13.00;10.60;;;5.30;97.30;;;;;;5073903;28;20534;-76
2021/04/07 05:33:56;;;;;;;15.65;10.20;;;5.30;97.40;;;;;;5072870;28;20165;-76
2021/04/07 05:36:22;;;;;;;11.70;10.00;;;5.20;97.60;;;;;;5073363;28;20306;-77
2021/04/07 05:38:47;;;;;;;12.07;9.80;;;5.30;97.80;;;;;;5072883;28;20209;-77
2021/04/07 05:41:14;;;;;;;14.50;10.97;;;5.30;97.70;;;;;;5073683;28;20185;-77
2021/04/07 05:43:40;;;;;;;11.43;10.23;;;5.30;97.70;;;;;;5073430;28;20180;-76
2021/04/07 05:46:06;;;;;;;12.37;10.13;;;5.30;97.80;;;;;;5072916;28;20182;-77
2021/04/07 05:48:32;;;;;;;14.48;10.45;;;5.30;97.90;;;;;;5073105;28;20192;-76
2021/04/07 05:50:58;;;;;;;13.10;10.23;;;5.30;98.00;;;;;;5072444;28;20177;-77
2021/04/07 05:53:24;;;;;;;13.37;10.13;;;5.30;98.00;;;;;;5073300;28;20660;-77
2021/04/07 05:55:52;;;;;;;12.70;9.57;;;5.40;98.00;;;;;;5071698;28;20394;-77
2021/04/07 05:58:18;;;;;;;10.50;9.40;;;5.40;97.80;;;;;;5072079;28;20490;-77
2021/04/07 06:00:45;;;;;;;9.75;8.25;;;5.50;97.90;;;;;;5071858;28;20169;-77
2021/04/07 06:03:11;;;;;;;8.27;6.93;;;5.40;98.10;;;;;;5072064;28;20613;-75
2021/04/07 06:05:39;;;;;;;8.68;7.85;;;5.40;97.80;;;;;;5073105;28;20199;-75
2021/04/07 06:08:05;;;;;;;11.75;9.40;;;5.60;99.90;;;;;;5072152;28;20515;-75
2021/04/07 06:10:32;;;;;;;9.70;8.73;;;6.00;99.90;;;;;;5072316;28;20170;-76
2021/04/07 06:13:01;;;;;;;6.90;6.20;;;6.60;99.90;;;;;;5072293;28;20235;-76
2021/04/07 06:15:28;;;;;;;9.80;8.90;;;7.20;99.90;;;;;;5072981;28;20260;-74
2021/04/07 06:20:23;;;;;;;7.73;7.10;;;7.90;99.20;;;;;;5078984;28;20923;-72
2021/04/07 06:22:48;;;;;;;8.60;7.77;;;8.50;99.90;;;;;;5073789;28;20433;-73
2021/04/07 06:25:16;;;;;;;7.50;6.87;;;8.80;96.60;;;;;;5072943;28;20918;-73
2021/04/07 06:27:42;;;;;;;9.17;8.53;;;8.90;96.00;;;;;;5073002;28;20498;-74
2021/04/07 06:30:09;;;;;;;9.10;8.40;;;9.10;94.60;;;;;;5072734;28;20410;-74
2021/04/07 06:32:34;;;;;;;7.30;6.70;;;9.40;99.40;;;;;;5078525;28;20419;-74
2021/04/07 06:35:00;;;;;;;9.60;8.80;;;9.90;99.60;;;;;;5081013;28;20422;-74
2021/04/07 06:37:26;;;;;;;9.70;8.70;;;10.00;91.80;;;;;;5072083;28;20457;-75
2021/04/07 06:39:52;;;;;;;6.33;5.83;;;10.00;93.90;;;;;;5071838;28;20234;-77
2021/04/07 06:42:18;;;;;;;6.90;6.30;;;10.10;91.60;;;;;;5072547;28;20267;-77
2021/04/07 06:44:44;;;;;;;7.20;6.70;;;10.40;93.30;;;;;;5072167;28;20625;-75
2021/04/07 06:47:11;;;;;;;9.43;8.57;;;10.60;93.00;;;;;;5072097;28;20419;-77
2021/04/07 06:49:40;;;;;;;7.80;7.10;;;10.50;90.70;;;;;;5071588;28;20427;-78
2021/04/07 06:52:13;;;;;;;7.50;6.90;;;10.40;91.10;;;;;;5071631;28;20415;-73
2021/04/07 06:54:40;;;;;;;7.27;6.77;;;10.50;95.00;;;;;;5072615;28;20399;-74
2021/04/07 06:57:05;;;;;;;7.73;7.13;;;10.60;96.30;;;;;;5072293;28;20770;-74
2021/04/07 06:59:35;;;;;;;7.70;7.20;;;10.60;92.00;;;;;;5076567;28;20444;-73
2021/04/07 07:02:00;;;;;;;9.00;8.40;;;10.70;92.50;;;;;;5061318;28;20187;-73
2021/04/07 07:04:26;;;;;;;7.63;7.00;;;10.60;91.80;;;;;;5072263;28;20908;-74
2021/04/07 07:06:57;;;;;;;8.40;7.80;;;10.60;90.20;;;;;;5071648;28;20170;-75
2021/04/07 07:09:23;;;;;;;9.53;8.93;;;10.40;85.00;;;;;;5072400;28;20177;-76
2021/04/07 07:11:50;;;;;;;6.17;5.57;;;10.40;93.50;;;;;;5072054;28;20953;-78
2021/04/07 07:14:20;;;;;;;6.23;5.73;;;10.60;94.10;;;;;;5072900;28;20514;-76
2021/04/07 07:16:48;;;;;;;7.23;6.53;;;10.60;91.70;;;;;;5072641;28;20502;-77
2021/04/07 07:19:34;;;;;;;6.50;5.90;;;10.40;88.40;;;;;;5071439;28;20454;-73
2021/04/07 07:22:02;;;;;;;6.50;6.10;;;10.20;90.10;;;;;;5071647;28;20398;-74
2021/04/07 07:24:36;;;;;;;7.73;7.23;;;10.10;91.30;;;;;;5071492;28;20489;-74
2021/04/07 07:27:09;;;;;;;5.03;4.73;;;10.00;93.70;;;;;;5070789;28;20427;-75
2021/04/07 07:29:38;;;;;;;5.63;5.23;;;9.60;86.60;;;;;;5071167;28;20423;-75
2021/04/07 07:32:10;;;;;;;4.70;4.37;;;9.20;86.20;;;;;;5071059;28;20451;-81
2021/04/07 07:34:36;;;;;;;7.17;6.70;;;8.60;87.10;;;;;;5070260;28;20411;-77
2021/04/07 07:37:05;;;;;;;5.40;4.70;;;8.30;90.10;;;;;;5071265;28;20481;-74
2021/04/07 07:39:33;;;;;;;6.10;5.60;;;7.70;90.60;;;;;;5072107;28;20429;-74
2021/04/07 07:42:02;;;;;;;5.90;5.40;;;7.30;91.40;;;;;;5071674;28;20383;-74
2021/04/07 07:44:29;;;;;;;6.00;5.60;;;7.00;92.30;;;;;;5071359;28;20425;-74
2021/04/07 07:47:07;;;;;;;5.70;5.20;;;6.80;93.30;;;;;;5069987;28;20391;-74
2021/04/07 07:49:33;;;;;;;5.80;5.50;;;6.60;94.10;;;;;;5069272;28;20173;-73
2021/04/07 07:51:59;;;;;;;5.73;5.23;;;6.50;94.60;;;;;;5069978;28;20276;-74
2021/04/07 07:54:26;;;;;;;7.07;6.50;;;6.50;94.40;;;;;;5072038;28;20235;-73
2021/04/07 07:56:53;;;;;;;6.30;5.75;;;6.20;94.80;;;;;;5073207;28;20177;-73
2021/04/07 07:59:29;;;;;;;8.02;7.25;;;6.10;95.30;;;;;;5088323;28;20659;-75
2021/04/07 08:01:55;;;;;;;6.60;6.00;;;6.10;95.70;;;;;;5080198;28;20222;-74
2021/04/07 08:04:22;;;;;;;6.70;6.10;;;6.00;95.90;;;;;;5071967;28;20257;-75
2021/04/07 08:06:48;;;;;;;6.55;6.05;;;6.00;95.90;;;;;;5072860;28;20233;-74
2021/04/07 08:09:14;;;;;;;5.80;5.40;;;5.90;95.80;;;;;;5085758;28;20250;-72
2021/04/07 08:11:46;;;;;;;6.40;5.80;;;5.80;96.10;;;;;;5073866;28;20176;-71
2021/04/07 08:14:14;;;;;;;6.68;6.18;;;5.80;96.40;;;;;;5075020;28;20302;-71
2021/04/07 08:16:40;;;;;;;4.75;4.45;;;5.70;96.70;;;;;;5075130;28;20185;-71
2021/04/07 08:19:06;;;;;;;7.72;7.22;;;5.70;96.60;;;;;;5074703;28;20205;-72
2021/04/07 08:21:34;;;;;;;5.80;5.20;;;5.80;96.70;;;;;;5074074;28;20181;-73
2021/04/07 08:24:04;;;;;;;5.28;4.88;;;5.80;97.00;;;;;;5073199;28;20427;-73
2021/04/07 08:26:32;;;;;;;4.38;4.07;;;5.70;96.60;;;;;;5075353;28;20176;-76
2021/04/07 08:28:58;;;;;;;5.75;5.45;;;5.60;96.60;;;;;;5074412;28;20182;-77
2021/04/07 08:31:27;;;;;;;5.25;4.78;;;5.50;97.10;;;;;;5075351;28;20181;-76
2021/04/07 08:33:56;;;;;;;5.05;4.65;;;5.60;97.70;;;;;;5074672;28;20176;-77
2021/04/07 08:36:24;;;;;;;5.57;5.10;;;5.60;97.30;;;;;;5075872;28;20219;-78
2021/04/07 08:39:11;;;;;;;7.03;6.50;;;5.60;97.40;;;;;;5088546;28;20204;-76
2021/04/07 08:41:42;;;;;;;4.53;4.22;;;5.60;97.60;;;;;;5085825;28;20186;-77
2021/04/07 08:44:10;;;;;;;5.15;4.75;;;5.60;97.60;;;;;;5074693;28;20180;-76
2021/04/07 08:46:40;;;;;;;5.20;4.57;;;5.60;97.70;;;;;;5074163;28;20259;-80
2021/04/07 08:49:06;;;;;;;5.22;4.93;;;5.60;97.80;;;;;;5074140;28;20181;-79
2021/04/07 08:51:34;;;;;;;5.80;5.40;;;5.60;97.80;;;;;;5074422;28;20192;-76
2021/04/07 08:54:00;;;;;;;5.90;5.50;;;5.50;97.90;;;;;;5073507;28;20185;-78
2021/04/07 08:56:27;;;;;;;5.70;5.30;;;5.60;97.80;;;;;;5073712;28;20169;-77
2021/04/07 08:59:04;;;;;;;5.45;5.05;;;5.60;97.70;;;;;;5080249;28;20205;-79
2021/04/07 09:01:35;;;;;;;7.07;6.57;;;5.70;98.00;;;;;;5073760;28;20201;-77
2021/04/07 09:04:15;;;;;;;5.55;5.00;;;5.70;97.80;;;;;;5073680;28;20211;-77
2021/04/07 09:06:59;;;;;;;6.50;6.15;;;5.80;97.60;;;;;;5075293;28;20168;-77
2021/04/07 09:09:25;;;;;;;7.35;5.50;;;5.70;97.50;;;;;;5074436;28;20235;-77
2021/04/07 09:11:52;;;;;;;5.47;4.97;;;5.80;97.30;;;;;;5074531;28;20172;-78
2021/04/07 09:14:20;;;;;;;5.15;4.85;;;5.80;97.40;;;;;;5071563;28;20721;-79
2021/04/07 09:16:46;;;;;;;6.15;5.60;;;5.80;97.20;;;;;;5073960;28;20755;-77
2021/04/07 09:19:18;;;;;;;6.32;5.82;;;5.80;97.70;;;;;;5073101;28;20201;-76
2021/04/07 09:21:57;;;;;;;6.40;5.95;;;5.80;97.80;;;;;;5074004;28;20636;-76
2021/04/07 09:24:27;;;;;;;7.05;6.38;;;5.80;98.30;;;;;;5071916;28;20173;-77
2021/04/07 09:26:55;;;;;;;6.10;5.50;;;5.70;98.40;;;;;;5074202;28;20184;-76
2021/04/07 09:29:21;;;;;;;6.22;5.63;;;5.80;98.60;;;;;;5073564;28;20184;-74
2021/04/07 09:31:50;;;;;;;8.20;6.65;;;5.90;98.60;;;;;;5074283;28;20177;-74
2021/04/07 09:34:16;;;;;;;7.30;6.60;;;5.90;99.00;;;;;;5073416;28;20227;-74
2021/04/07 09:36:43;;;;;;;7.68;7.05;;;5.90;98.80;;;;;;5074172;28;20217;-74
2021/04/07 09:39:12;;;;;;;7.97;7.28;;;5.90;98.70;;;;;;5073253;28;20228;-74
2021/04/07 09:41:42;;;;;;;9.27;8.38;;;5.90;98.90;;;;;;5073005;28;20177;-74
2021/04/07 09:44:10;;;;;;;9.00;8.20;;;6.00;98.70;;;;;;5072586;28;20180;-74
2021/04/07 09:46:38;;;;;;;7.72;7.00;;;6.00;98.60;;;;;;5073166;28;20183;-74
2021/04/07 09:49:10;;;;;;;9.20;8.30;;;6.10;98.70;;;;;;5072989;28;20201;-74
2021/04/07 09:51:40;;;;;;;8.77;7.97;;;6.10;98.70;;;;;;5073907;28;20525;-74
2021/04/07 09:54:09;;;;;;;9.95;7.70;;;6.20;98.80;;;;;;5072696;28;20165;-75
2021/04/07 09:57:00;;;;;;;9.07;8.10;;;6.40;99.40;;;;;;5073889;28;20262;-74
2021/04/07 09:59:48;;;;;;;8.67;7.93;;;6.70;99.50;;;;;;5072871;28;20947;-74
2021/04/07 10:02:25;;;;;;;9.20;8.30;;;7.00;99.00;;;;;;5072340;28;20762;-74
2021/04/07 10:04:56;;;;;;;13.83;10.13;;;7.10;98.50;;;;;;5071093;28;20425;-76
2021/04/07 10:07:23;;;;;;;14.27;9.70;;;7.30;98.10;;;;;;5072110;28;20482;-75
2021/04/07 10:09:51;;;;;;;9.90;8.90;;;7.40;97.50;;;;;;5073059;28;20441;-76
2021/04/07 10:12:19;;;;;;;10.83;9.40;;;7.30;97.30;;;;;;5072902;28;20430;-77
2021/04/07 10:14:59;;;;;;;11.63;9.90;;;7.30;97.00;;;;;;5072659;28;20420;-77
2021/04/07 10:17:30;;;;;;;12.30;9.60;;;7.20;97.10;;;;;;5072559;28;20466;-77
2021/04/07 10:20:05;;;;;;;11.37;9.00;;;7.20;97.20;;;;;;5062470;28;20484;-76
2021/04/07 10:22:32;;;;;;;11.03;9.80;;;7.10;97.30;;;;;;5073370;28;20365;-77
2021/04/07 10:25:01;;;;;;;12.50;11.40;;;7.10;97.80;;;;;;5071349;28;20427;-77
2021/04/07 10:27:27;;;;;;;11.95;10.48;;;7.20;97.80;;;;;;5072249;28;20398;-76
2021/04/07 10:30:09;;;;;;;11.70;10.50;;;7.20;98.10;;;;;;5070836;28;20210;-76
2021/04/07 10:32:40;;;;;;;10.60;9.60;;;7.20;98.00;;;;;;5072937;28;20383;-76
2021/04/07 10:35:06;;;;;;;11.70;10.50;;;7.20;97.90;;;;;;5072030;28;20421;-76
2021/04/07 10:37:32;;;;;;;10.20;9.10;;;7.10;98.00;;;;;;5072781;28;20806;-76
2021/04/07 10:39:58;;;;;;;10.90;9.63;;;7.20;98.10;;;;;;5071943;28;20440;-78
2021/04/07 10:42:23;;;;;;;9.63;8.30;;;7.20;97.90;;;;;;5072762;28;20219;-76
2021/04/07 10:45:00;;;;;;;10.17;8.40;;;7.20;98.00;;;;;;5072767;28;20394;-77
2021/04/07 10:47:32;;;;;;;18.57;12.50;;;7.20;98.30;;;;;;5072585;28;20178;-77
2021/04/07 10:49:58;;;;;;;10.30;8.50;;;7.20;98.50;;;;;;5072844;28;20786;-78
2021/04/07 10:52:37;;;;;;;8.73;7.83;;;7.20;98.60;;;;;;5073141;28;20412;-75
2021/04/07 10:55:11;;;;;;;8.10;7.30;;;7.20;98.40;;;;;;5071777;28;20485;-88
2021/04/07 10:57:45;;;;;;;7.93;7.23;;;7.20;98.10;;;;;;5072095;28;20501;-75
2021/04/07 11:00:24;;;;;;;8.40;7.50;;;7.20;98.20;;;;;;5071077;28;20425;-77
2021/04/07 11:02:52;;;;;;;9.83;8.97;;;7.10;98.40;;;;;;5071483;28;20387;-77
2021/04/07 11:05:20;;;;;;;9.20;8.30;;;7.20;98.70;;;;;;5070723;28;20436;-77
2021/04/07 11:07:47;;;;;;;8.17;7.37;;;7.20;98.70;;;;;;5071521;28;20387;-77
2021/04/07 11:10:15;;;;;;;7.93;7.13;;;7.20;98.90;;;;;;5071459;28;20409;-77
2021/04/07 11:12:43;;;;;;;8.30;7.33;;;7.20;98.80;;;;;;5072220;28;20822;-77
2021/04/07 11:15:13;;;;;;;7.50;6.80;;;7.20;98.90;;;;;;5070888;28;20400;-77
2021/04/07 11:17:57;;;;;;;7.20;6.50;;;7.20;98.70;;;;;;5072176;28;20393;-78
2021/04/07 11:20:26;;;;;;;6.73;6.07;;;7.20;98.40;;;;;;5071174;28;20422;-77
2021/04/07 11:22:52;;;;;;;8.63;7.83;;;7.20;98.50;;;;;;5053734;28;20424;-77
2021/04/07 11:25:20;;;;;;;7.70;6.87;;;7.20;98.60;;;;;;5071060;28;20810;-77
2021/04/07 11:27:52;;;;;;;8.10;7.30;;;7.10;98.80;;;;;;5070414;28;20562;-77
2021/04/07 11:30:19;;;;;;;8.00;7.13;;;7.10;98.90;;;;;;5069742;28;20412;-77
2021/04/07 11:32:52;;;;;;;9.60;8.60;;;7.10;99.50;;;;;;5067630;28;20412;-77
2021/04/07 11:35:29;;;;;;;8.47;7.77;;;7.30;99.90;;;;;;5071013;28;20388;-77
2021/04/07 11:43:25;;;;;;;7.80;7.10;;;7.40;99.90;;;;;;5069988;28;20169;-76
2021/04/07 11:45:51;;;;;;;8.57;7.73;;;7.40;99.90;;;;;;5070866;28;20410;-76
2021/04/07 11:48:16;;;;;;;8.40;7.60;;;7.40;99.90;;;;;;5068867;28;20396;-76
2021/04/07 11:50:42;;;;;;;10.50;9.50;;;7.40;99.90;;;;;;5074596;28;20207;-76
2021/04/07 11:53:08;;;;;;;9.63;8.63;;;7.50;99.90;;;;;;5074218;28;20171;-77
2021/04/07 11:55:33;;;;;;;8.57;7.73;;;7.40;99.90;;;;;;5074407;28;20182;-76
2021/04/07 11:58:02;;;;;;;7.50;6.80;;;7.50;99.90;;;;;;5074497;28;20225;-76
2021/04/07 12:00:28;;;;;;;7.90;7.20;;;7.50;99.90;;;;;;5074153;28;20211;-77
2021/04/07 12:02:54;;;;;;;8.57;7.60;;;7.50;99.90;;;;;;5074510;28;20416;-76
2021/04/07 12:05:24;;;;;;;8.53;7.63;;;7.40;99.90;;;;;;5087217;28;20901;-76
2021/04/07 12:07:50;;;;;;;8.30;7.40;;;7.40;99.90;;;;;;5085326;28;20384;-76
2021/04/07 12:10:17;;;;;;;9.13;6.90;;;7.30;99.90;;;;;;5081462;28;20899;-76
2021/04/07 12:12:43;;;;;;;10.30;9.30;;;7.40;99.90;;;;;;5074787;28;20419;-76
2021/04/07 12:15:10;;;;;;;6.97;6.37;;;7.50;99.90;;;;;;5073775;28;20490;-76
2021/04/07 12:17:36;;;;;;;6.70;6.07;;;7.60;99.90;;;;;;5074260;28;20471;-76
2021/04/07 12:20:02;;;;;;;6.90;6.20;;;7.60;99.90;;;;;;5082344;28;20791;-76
2021/04/07 12:22:28;;;;;;;6.80;6.20;;;7.70;99.90;;;;;;5075131;28;20178;-77
2021/04/07 12:24:54;;;;;;;7.63;6.97;;;7.70;99.90;;;;;;5075281;28;20751;-76
2021/04/07 12:27:20;;;;;;;5.67;5.00;;;7.70;99.90;;;;;;5073882;28;20429;-76
2021/04/07 12:29:45;;;;;;;6.20;5.70;;;7.80;99.70;;;;;;5076350;28;20179;-76
2021/04/07 12:32:11;;;;;;;4.60;4.10;;;7.70;99.20;;;;;;5074829;28;20183;-76
2021/04/07 12:34:37;;;;;;;6.63;6.00;;;7.60;99.20;;;;;;5073669;28;20194;-76
2021/04/07 12:37:03;;;;;;;6.50;5.37;;;7.50;99.30;;;;;;5073311;28;20225;-77
2021/04/07 12:39:29;;;;;;;5.07;4.60;;;7.60;99.40;;;;;;5072965;28;20447;-76
2021/04/07 12:41:57;;;;;;;3.73;3.43;;;7.60;99.60;;;;;;5073664;28;20775;-76
2021/04/07 12:44:23;;;;;;;5.53;5.13;;;7.70;99.90;;;;;;5073325;28;20648;-76
2021/04/07 12:46:49;;;;;;;5.70;3.70;;;7.90;99.90;;;;;;5074839;28;20460;-76
2021/04/07 12:49:15;;;;;;;5.73;5.40;;;7.90;99.90;;;;;;5074282;28;20913;-76
2021/04/07 12:51:41;;;;;;;4.67;4.37;;;8.00;99.90;;;;;;5074895;28;20936;-75
2021/04/07 12:54:13;;;;;;;5.10;4.67;;;8.00;99.90;;;;;;5074288;28;20438;-76
2021/04/07 12:56:46;;;;;;;4.17;3.87;;;8.10;99.60;;;;;;5074491;28;20797;-75